Time;durP1;ratioP1;P1;durP2;ratioP2;P2;SDS_P1;SDS_P2;PMS_P1;PMS_P2;Temp;Humidity;BMP_temperature;BMP_pressure;BME280_temperature;BME280_humidity;BME280_pressure;Samples;Min_cycle;Max_cycle;Signal;HPM_P1;HPM_P2
2022/06/13 00:01:15;;;;;;;13.77;6.40;;;13.80;99.90;;;;;;4992273;28;20041;-64
2022/06/13 00:03:41;;;;;;;13.38;6.20;;;13.80;99.90;;;;;;4986213;28;20123;-64
2022/06/13 00:06:07;;;;;;;17.42;7.78;;;13.80;99.90;;;;;;4983233;28;20066;-64
2022/06/13 00:08:33;;;;;;;15.07;7.28;;;13.80;99.90;;;;;;4991324;28;20072;-64
2022/06/13 00:10:59;;;;;;;19.65;7.72;;;13.70;99.90;;;;;;4993233;28;20042;-64
2022/06/13 00:13:25;;;;;;;15.32;7.88;;;13.60;99.90;;;;;;4989565;28;20034;-63
2022/06/13 00:15:50;;;;;;;15.13;7.60;;;13.50;99.90;;;;;;4985837;28;20093;-64
2022/06/13 00:18:16;;;;;;;17.85;8.00;;;13.50;99.90;;;;;;4993190;28;20074;-64
2022/06/13 00:20:42;;;;;;;14.93;7.90;;;13.50;99.90;;;;;;4986746;28;20058;-64
2022/06/13 00:23:07;;;;;;;14.95;7.25;;;13.60;99.90;;;;;;4987446;28;20166;-64
2022/06/13 00:25:33;;;;;;;14.85;7.22;;;13.50;99.90;;;;;;4992528;28;20486;-63
2022/06/13 00:27:59;;;;;;;14.98;7.43;;;13.60;99.90;;;;;;4993060;28;20042;-64
2022/06/13 00:30:25;;;;;;;15.82;7.43;;;13.60;99.90;;;;;;4988543;28;20430;-64
2022/06/13 00:32:50;;;;;;;15.85;7.45;;;13.60;99.90;;;;;;4991384;28;20376;-64
2022/06/13 00:35:17;;;;;;;13.68;7.72;;;13.60;99.90;;;;;;5516597;23;20033;-68
2022/06/13 00:37:43;;;;;;;19.90;7.32;;;13.60;99.90;;;;;;4966749;28;20552;-69
2022/06/13 00:40:10;;;;;;;14.73;7.13;;;13.60;99.90;;;;;;4976274;28;20034;-69
2022/06/13 00:42:36;;;;;;;15.27;7.60;;;13.60;99.90;;;;;;4973787;28;20046;-69
2022/06/13 00:45:02;;;;;;;16.25;7.22;;;13.60;99.90;;;;;;4955952;28;20791;-69
2022/06/13 00:47:28;;;;;;;14.57;7.38;;;13.60;99.90;;;;;;4978454;28;20043;-69
2022/06/13 00:49:54;;;;;;;14.85;7.35;;;13.50;99.90;;;;;;4945871;28;20438;-69
2022/06/13 00:52:30;;;;;;;17.70;7.57;;;13.60;99.90;;;;;;4955459;28;20034;-69
2022/06/13 00:54:56;;;;;;;20.45;8.52;;;13.60;99.90;;;;;;4952030;28;20077;-69
2022/06/13 00:57:25;;;;;;;15.05;7.47;;;13.60;99.90;;;;;;4966735;28;20085;-68
2022/06/13 00:59:55;;;;;;;19.27;7.70;;;13.70;99.90;;;;;;4974529;28;20074;-69
2022/06/13 01:02:21;;;;;;;14.18;7.95;;;13.70;99.90;;;;;;4963147;28;20050;-68
2022/06/13 01:04:51;;;;;;;19.75;7.70;;;13.70;99.90;;;;;;4973804;28;20053;-69
2022/06/13 01:07:18;;;;;;;13.60;7.72;;;13.70;99.90;;;;;;4974758;28;20081;-69
2022/06/13 01:12:30;;;;;;;14.48;7.60;;;13.70;99.90;;;;;;4968774;28;20042;-69
2022/06/13 01:15:26;;;;;;;16.40;8.07;;;13.70;99.90;;;;;;4971253;28;20047;-68
2022/06/13 01:18:21;;;;;;;16.08;8.02;;;13.70;99.90;;;;;;4955437;28;20043;-68
2022/06/13 01:21:01;;;;;;;16.35;7.57;;;13.80;99.90;;;;;;4960818;28;20201;-68
2022/06/13 01:23:54;;;;;;;17.75;7.57;;;13.70;99.90;;;;;;4974235;28;20050;-69
2022/06/13 01:30:11;;;;;;;17.07;7.67;;;13.80;99.90;;;;;;4989889;28;20093;-69
2022/06/13 01:33:04;;;;;;;14.10;7.15;;;13.80;99.90;;;;;;4958385;28;20042;-69
2022/06/13 01:36:05;;;;;;;15.07;7.55;;;13.80;99.90;;;;;;4974468;28;20122;-69
2022/06/13 01:38:31;;;;;;;14.17;8.17;;;13.80;99.90;;;;;;4941014;28;20140;-69
2022/06/13 01:41:12;;;;;;;14.93;7.32;;;13.80;99.90;;;;;;4974027;28;20502;-69
2022/06/13 01:43:53;;;;;;;13.52;7.10;;;13.70;99.90;;;;;;4989559;28;20050;-69
2022/06/13 01:46:27;;;;;;;17.75;8.13;;;13.70;99.90;;;;;;4972172;28;20038;-69
2022/06/13 01:49:13;;;;;;;18.02;8.18;;;13.70;99.90;;;;;;4967341;28;20085;-69
2022/06/13 01:51:51;;;;;;;17.98;8.52;;;13.70;99.90;;;;;;4973307;28;20074;-69
2022/06/13 01:54:23;;;;;;;17.05;7.78;;;13.70;99.90;;;;;;4963752;28;20066;-69
2022/06/13 01:56:56;;;;;;;13.88;7.93;;;13.60;99.90;;;;;;4966605;28;20045;-69
2022/06/13 01:59:37;;;;;;;18.13;8.70;;;13.60;99.90;;;;;;4974466;28;20042;-69
2022/06/13 02:02:13;;;;;;;16.58;8.52;;;13.60;99.90;;;;;;4950762;28;20046;-69
2022/06/13 02:04:54;;;;;;;18.45;9.00;;;13.60;99.90;;;;;;5044139;23;20046;-68
2022/06/13 02:07:31;;;;;;;16.75;8.80;;;13.60;99.90;;;;;;4975012;28;20074;-69
2022/06/13 02:10:02;;;;;;;17.15;8.02;;;13.60;99.90;;;;;;4970629;28;20034;-69
2022/06/13 02:12:32;;;;;;;14.90;8.57;;;13.60;99.90;;;;;;4972060;28;20042;-69
2022/06/13 02:15:05;;;;;;;17.35;8.48;;;13.60;99.90;;;;;;4973794;28;20102;-69
2022/06/13 02:17:37;;;;;;;14.27;7.57;;;13.60;99.90;;;;;;4968589;28;20042;-69
2022/06/13 02:20:21;;;;;;;14.88;7.72;;;13.60;99.90;;;;;;4972035;28;20070;-69
2022/06/13 02:22:54;;;;;;;16.10;8.02;;;13.50;99.90;;;;;;4974856;28;20046;-69
2022/06/13 02:25:28;;;;;;;15.13;7.70;;;13.60;99.90;;;;;;4974899;28;20671;-69
2022/06/13 02:27:59;;;;;;;15.45;8.43;;;13.50;99.90;;;;;;4973688;28;20043;-69
2022/06/13 02:30:34;;;;;;;17.58;8.45;;;13.50;99.90;;;;;;4958033;28;20078;-69
2022/06/13 02:33:25;;;;;;;20.42;8.27;;;13.50;99.90;;;;;;4972692;28;20042;-71
2022/06/13 02:36:05;;;;;;;13.35;8.10;;;13.50;99.90;;;;;;4957573;28;20102;-71
2022/06/13 02:38:53;;;;;;;13.23;7.82;;;13.50;99.90;;;;;;4973561;28;20042;-71
2022/06/13 02:41:23;;;;;;;17.45;8.70;;;13.40;99.90;;;;;;4958072;28;20574;-71
2022/06/13 02:43:58;;;;;;;21.73;9.25;;;13.40;99.90;;;;;;4966687;28;20047;-71
2022/06/13 02:46:36;;;;;;;15.73;8.82;;;13.40;99.90;;;;;;4966786;28;20034;-71
2022/06/13 02:49:11;;;;;;;21.55;8.48;;;13.40;99.90;;;;;;4958334;28;20124;-71
2022/06/13 02:52:24;;;;;;;19.00;8.30;;;13.40;99.90;;;;;;4947038;28;20039;-71
2022/06/13 02:54:56;;;;;;;17.80;7.90;;;13.40;99.90;;;;;;4959026;28;20569;-71
2022/06/13 02:57:24;;;;;;;19.42;8.50;;;13.30;99.90;;;;;;4974437;28;20047;-71
2022/06/13 03:06:23;;;;;;;17.13;8.73;;;13.20;99.90;;;;;;5093795;23;20054;-70
2022/06/13 03:13:01;;;;;;;19.52;9.00;;;13.20;99.90;;;;;;4975709;28;20659;-69
2022/06/13 03:15:34;;;;;;;16.90;8.45;;;13.10;99.90;;;;;;4976840;28;20041;-69
2022/06/13 03:18:07;;;;;;;18.13;8.65;;;13.10;99.90;;;;;;4955818;28;20410;-69
2022/06/13 03:20:46;;;;;;;16.00;8.15;;;13.10;99.90;;;;;;4974737;28;20124;-69
2022/06/13 03:23:19;;;;;;;16.00;8.23;;;13.00;99.90;;;;;;4977195;28;20422;-69
2022/06/13 03:25:54;;;;;;;20.55;8.77;;;13.00;99.90;;;;;;4960708;28;20042;-69
2022/06/13 03:28:34;;;;;;;16.60;8.30;;;12.90;99.90;;;;;;4968048;28;20046;-69
2022/06/13 03:31:07;;;;;;;14.57;8.80;;;12.90;99.90;;;;;;4948166;28;20096;-69
2022/06/13 03:33:42;;;;;;;17.58;8.95;;;12.90;99.90;;;;;;4974088;28;20038;-69
2022/06/13 03:36:25;;;;;;;16.73;8.18;;;13.00;99.90;;;;;;4976682;28;20048;-69
2022/06/13 03:38:57;;;;;;;19.92;8.93;;;13.00;99.90;;;;;;4964489;28;20044;-69
2022/06/13 03:44:07;;;;;;;15.02;9.07;;;13.00;99.90;;;;;;5264634;23;20062;-72
2022/06/13 03:46:56;;;;;;;19.92;9.18;;;13.00;99.90;;;;;;4984375;28;20241;-72
2022/06/13 03:50:07;;;;;;;17.90;9.27;;;13.00;99.90;;;;;;4975885;28;20042;-72
2022/06/13 03:52:37;;;;;;;19.67;9.27;;;13.10;99.90;;;;;;4923786;28;20047;-72
2022/06/13 03:55:12;;;;;;;18.30;9.18;;;13.10;99.90;;;;;;4935639;29;20059;-72
2022/06/13 04:02:50;;;;;;;21.00;10.57;;;13.10;99.90;;;;;;5258839;23;19921;-68
2022/06/13 04:05:29;;;;;;;21.58;9.85;;;13.20;99.90;;;;;;4975718;28;20100;-68
2022/06/13 04:07:55;;;;;;;21.10;10.32;;;13.20;99.90;;;;;;4984967;28;20045;-68
2022/06/13 04:10:23;;;;;;;22.08;10.35;;;13.20;99.90;;;;;;4958455;28;20104;-68
2022/06/13 04:12:54;;;;;;;20.38;9.63;;;13.30;99.90;;;;;;4978101;28;20129;-68
2022/06/13 04:15:23;;;;;;;;;;;13.30;99.90;;;;;;4966069;28;20507;-68
2022/06/13 04:18:07;;;;;;;18.83;9.88;;;13.30;99.90;;;;;;4969863;28;19987;-68
2022/06/13 04:21:07;;;;;;;23.75;10.65;;;13.30;99.90;;;;;;4972086;28;20043;-68
2022/06/13 04:26:19;;;;;;;20.17;10.82;;;13.40;99.90;;;;;;5208146;23;20069;-69
2022/06/13 04:29:01;;;;;;;27.63;11.20;;;13.50;99.90;;;;;;4950476;28;20117;-69
2022/06/13 04:36:38;;;;;;;19.13;10.50;;;13.70;99.90;;;;;;5488579;23;20407;-68
2022/06/13 04:39:07;;;;;;;21.30;12.02;;;13.80;99.90;;;;;;4956293;28;20085;-69
2022/06/13 04:41:37;;;;;;;20.63;11.68;;;13.80;99.90;;;;;;4954604;28;20486;-69
2022/06/13 04:44:05;;;;;;;19.90;10.77;;;13.90;99.90;;;;;;4981073;28;20105;-69
2022/06/13 04:49:33;;;;;;;27.75;12.55;;;14.00;99.90;;;;;;5338509;23;20016;-72
2022/06/13 04:52:05;;;;;;;22.55;11.75;;;14.20;99.90;;;;;;4975315;28;20037;-72
2022/06/13 05:04:34;;;;;;;28.20;11.50;;;14.20;99.90;;;;;;5695633;23;20085;-72
2022/06/13 05:07:12;;;;;;;22.83;11.23;;;14.20;99.90;;;;;;4950103;28;20043;-72
2022/06/13 05:09:43;;;;;;;25.25;11.57;;;14.20;99.90;;;;;;4941533;29;20407;-69
2022/06/13 05:12:20;;;;;;;25.45;11.45;;;14.20;99.90;;;;;;4939484;28;20043;-69
2022/06/13 05:15:01;;;;;;;18.85;10.88;;;14.10;99.90;;;;;;4928829;28;20070;-69
2022/06/13 05:17:55;;;;;;;26.20;11.55;;;14.20;99.90;;;;;;4963322;28;20111;-69
2022/06/13 05:20:31;;;;;;;23.65;10.85;;;14.20;99.90;;;;;;4970447;28;20077;-68
2022/06/13 05:23:15;;;;;;;21.67;11.45;;;14.20;99.90;;;;;;4960357;28;20096;-69
2022/06/13 05:25:55;;;;;;;21.85;10.88;;;14.30;99.90;;;;;;4970221;28;20043;-69
2022/06/13 05:28:24;;;;;;;23.98;10.98;;;14.50;99.90;;;;;;4967353;28;20558;-69
2022/06/13 05:30:52;;;;;;;22.38;11.07;;;14.70;99.90;;;;;;4957773;28;20121;-69
2022/06/13 05:33:24;;;;;;;21.17;10.13;;;14.90;99.90;;;;;;4965508;28;20050;-69
2022/06/13 05:35:54;;;;;;;22.08;10.73;;;15.00;99.90;;;;;;4954595;28;20089;-69
2022/06/13 05:38:46;;;;;;;19.00;9.55;;;15.10;99.90;;;;;;4941048;28;20547;-69
2022/06/13 05:41:12;;;;;;;15.65;8.77;;;15.20;99.90;;;;;;4989300;23;20054;-65
2022/06/13 05:43:38;;;;;;;17.25;7.05;;;15.10;99.90;;;;;;4992020;28;20482;-64
2022/06/13 05:46:05;;;;;;;22.90;8.50;;;15.10;99.90;;;;;;4992025;28;20038;-65
2022/06/13 05:48:31;;;;;;;15.40;7.38;;;15.10;99.90;;;;;;4992072;28;20054;-64
2022/06/13 05:50:57;;;;;;;15.50;5.68;;;15.10;99.90;;;;;;4991379;28;20105;-64
2022/06/13 05:53:25;;;;;;;13.00;4.90;;;15.10;99.90;;;;;;4991944;28;20121;-65
2022/06/13 05:55:54;;;;;;;11.32;4.60;;;15.10;99.90;;;;;;4978219;28;20091;-64
2022/06/13 05:58:21;;;;;;;8.13;4.20;;;15.20;99.90;;;;;;4988008;28;20034;-64
2022/06/13 06:00:50;;;;;;;13.43;4.30;;;15.20;99.90;;;;;;4991876;28;20610;-64
2022/06/13 06:03:16;;;;;;;9.45;3.88;;;15.20;99.90;;;;;;4988880;28;20049;-64
2022/06/13 06:05:43;;;;;;;12.02;4.30;;;15.20;99.90;;;;;;4971113;28;20116;-64
2022/06/13 06:08:17;;;;;;;11.05;4.53;;;15.20;99.90;;;;;;4976580;28;20050;-65
2022/06/13 06:10:43;;;;;;;7.97;4.10;;;15.20;99.90;;;;;;4986086;28;20034;-65
2022/06/13 06:13:12;;;;;;;11.25;4.10;;;15.30;99.90;;;;;;4979800;28;20391;-65
2022/06/13 06:15:39;;;;;;;10.25;3.88;;;15.50;99.90;;;;;;4989961;28;20048;-65
2022/06/13 06:18:05;;;;;;;9.65;3.53;;;15.70;99.90;;;;;;4991840;28;20039;-65
2022/06/13 06:20:30;;;;;;;10.88;3.63;;;15.90;99.90;;;;;;4986039;28;20126;-65
2022/06/13 06:22:56;;;;;;;9.07;3.58;;;16.00;99.90;;;;;;4981639;28;20042;-65
2022/06/13 06:25:21;;;;;;;8.63;3.20;;;15.90;99.90;;;;;;4991554;28;20038;-65
2022/06/13 06:27:47;;;;;;;9.23;3.10;;;15.90;99.90;;;;;;4986754;28;20038;-65
2022/06/13 06:30:16;;;;;;;7.93;3.00;;;16.00;99.90;;;;;;4987997;28;20375;-65
2022/06/13 06:32:42;;;;;;;9.70;3.10;;;16.10;99.90;;;;;;4986956;28;20125;-65
2022/06/13 06:35:08;;;;;;;9.05;2.88;;;16.30;99.90;;;;;;4985489;28;20439;-65
2022/06/13 06:37:33;;;;;;;9.23;2.90;;;16.40;99.90;;;;;;4991252;28;20030;-65
2022/06/13 06:39:59;;;;;;;6.80;2.85;;;16.40;99.90;;;;;;4991209;28;20038;-65
2022/06/13 06:42:24;;;;;;;10.30;3.35;;;16.40;99.90;;;;;;4967563;28;20038;-65
2022/06/13 06:44:50;;;;;;;7.13;2.90;;;16.40;99.90;;;;;;4976777;28;20042;-65
2022/06/13 06:47:16;;;;;;;6.65;2.95;;;16.40;99.90;;;;;;4983455;28;20046;-65
2022/06/13 06:49:41;;;;;;;9.98;2.92;;;16.50;99.90;;;;;;4993788;28;20046;-65
2022/06/13 06:52:07;;;;;;;9.25;2.75;;;16.50;99.90;;;;;;4990508;28;20038;-65
2022/06/13 07:00:04;;;;;;;8.10;2.80;;;16.40;99.90;;;;;;4993976;28;20121;-65
2022/06/13 07:02:30;;;;;;;9.60;2.83;;;16.30;99.90;;;;;;4986928;28;20129;-65
2022/06/13 07:04:59;;;;;;;8.70;2.97;;;16.30;99.90;;;;;;4984376;28;20162;-65
2022/06/13 07:07:26;;;;;;;10.68;2.88;;;16.20;99.90;;;;;;4991487;28;20077;-65
2022/06/13 07:09:51;;;;;;;10.48;2.70;;;16.10;99.90;;;;;;4994261;28;20124;-65
2022/06/13 07:12:18;;;;;;;8.77;2.90;;;16.00;99.90;;;;;;4983233;28;20106;-65
2022/06/13 07:14:44;;;;;;;9.07;2.80;;;15.80;99.90;;;;;;4987377;28;20033;-65
2022/06/13 07:17:10;;;;;;;9.25;2.97;;;15.70;99.90;;;;;;4973159;28;20046;-65
2022/06/13 07:19:37;;;;;;;12.18;3.85;;;15.40;99.90;;;;;;4985730;28;20047;-63
2022/06/13 07:22:04;;;;;;;14.10;4.20;;;14.80;99.90;;;;;;4994004;28;20049;-63
2022/06/13 07:24:31;;;;;;;9.30;2.90;;;14.30;99.90;;;;;;4989761;28;20065;-63
2022/06/13 07:26:57;;;;;;;6.70;2.40;;;13.60;99.90;;;;;;4987054;28;20089;-63
2022/06/13 07:29:24;;;;;;;7.65;2.47;;;13.00;99.90;;;;;;4993328;28;20537;-63
2022/06/13 07:31:58;;;;;;;7.32;2.78;;;12.80;99.90;;;;;;4994213;28;20042;-63
2022/06/13 07:34:27;;;;;;;6.32;2.88;;;12.80;99.90;;;;;;4982163;28;20736;-63
2022/06/13 07:36:55;;;;;;;9.07;2.83;;;12.80;99.90;;;;;;4982972;28;20434;-63
2022/06/13 07:39:21;;;;;;;5.30;2.80;;;13.00;99.90;;;;;;4993601;28;20133;-63
2022/06/13 07:41:48;;;;;;;8.73;3.00;;;13.10;99.90;;;;;;4970422;28;20379;-63
2022/06/13 07:44:24;;;;;;;4.65;2.80;;;13.20;99.90;;;;;;4976614;28;20569;-63
2022/06/13 07:46:51;;;;;;;6.03;2.40;;;13.30;99.90;;;;;;4968878;28;20044;-63
2022/06/13 07:49:20;;;;;;;6.43;2.80;;;13.30;99.90;;;;;;4988533;28;20057;-63
2022/06/13 07:51:46;;;;;;;5.38;2.60;;;13.50;99.90;;;;;;4976052;28;20084;-63
2022/06/13 07:54:12;;;;;;;5.28;2.30;;;13.60;99.90;;;;;;4985479;28;20070;-63
2022/06/13 07:56:39;;;;;;;6.75;2.30;;;13.70;99.90;;;;;;4993554;28;20042;-64
2022/06/13 07:59:07;;;;;;;6.28;2.50;;;13.80;99.90;;;;;;4987675;28;20309;-63
2022/06/13 08:01:33;;;;;;;5.60;2.30;;;13.90;99.90;;;;;;4983577;28;20402;-63
2022/06/13 08:03:58;;;;;;;4.68;2.55;;;14.00;99.90;;;;;;4979921;28;20039;-63
2022/06/13 08:06:25;;;;;;;7.15;2.95;;;14.00;99.90;;;;;;4984497;28;20077;-64
2022/06/13 08:08:51;;;;;;;4.88;2.88;;;14.10;99.90;;;;;;4958801;28;20137;-63
2022/06/13 08:11:21;;;;;;;5.25;2.70;;;14.10;99.90;;;;;;4990352;28;20134;-64
2022/06/13 08:13:47;;;;;;;7.82;3.05;;;14.30;99.90;;;;;;4973966;28;20089;-64
2022/06/13 08:16:13;;;;;;;5.60;3.08;;;14.50;99.90;;;;;;4972041;28;20043;-64
2022/06/13 08:18:39;;;;;;;8.00;3.38;;;14.70;99.90;;;;;;4987586;28;22111;-64
2022/06/13 08:21:06;;;;;;;7.32;3.28;;;14.70;99.90;;;;;;4992375;28;20042;-64
2022/06/13 08:23:32;;;;;;;7.25;3.22;;;14.90;99.90;;;;;;4992808;28;20042;-64
2022/06/13 08:25:58;;;;;;;8.02;3.00;;;15.00;99.90;;;;;;4988712;28;20042;-64
2022/06/13 08:28:24;;;;;;;5.53;3.00;;;15.20;99.90;;;;;;4992674;28;20089;-64
2022/06/13 08:30:53;;;;;;;9.88;3.20;;;15.50;99.90;;;;;;4992604;28;20089;-64
2022/06/13 08:33:21;;;;;;;6.32;3.10;;;15.70;99.90;;;;;;4985212;28;20088;-64
2022/06/13 08:35:47;;;;;;;5.47;3.05;;;15.90;99.90;;;;;;4991276;28;20038;-64
2022/06/13 08:38:13;;;;;;;6.50;2.80;;;16.00;99.90;;;;;;4992570;28;20048;-64
2022/06/13 08:40:38;;;;;;;4.40;2.42;;;15.90;99.90;;;;;;4981561;28;20035;-64
2022/06/13 08:43:24;;;;;;;7.25;2.60;;;15.80;99.90;;;;;;4988602;28;20108;-64
2022/06/13 08:46:06;;;;;;;8.30;2.92;;;15.70;99.90;;;;;;4949608;28;20054;-64
2022/06/13 08:48:41;;;;;;;6.30;2.70;;;15.60;99.90;;;;;;4990998;28;20046;-64
2022/06/13 08:51:47;;;;;;;11.82;2.60;;;15.50;99.90;;;;;;4985262;28;20035;-64
2022/06/13 08:54:22;;;;;;;5.63;2.60;;;15.50;99.90;;;;;;4979491;28;20062;-64
2022/06/13 08:56:49;;;;;;;7.38;2.70;;;15.50;99.90;;;;;;4973264;28;20085;-64
2022/06/13 08:59:24;;;;;;;6.35;2.70;;;15.70;99.90;;;;;;4986689;28;20065;-64
2022/06/13 09:02:05;;;;;;;6.75;2.40;;;15.80;99.90;;;;;;4973862;28;20457;-64
2022/06/13 09:04:38;;;;;;;4.88;2.60;;;15.90;99.90;;;;;;4989118;28;20418;-64
2022/06/13 09:07:10;;;;;;;7.70;2.88;;;15.90;99.90;;;;;;4988882;28;20081;-64
2022/06/13 09:09:53;;;;;;;10.10;2.47;;;15.90;99.90;;;;;;4987135;28;20054;-64
2022/06/13 09:12:28;;;;;;;8.20;2.60;;;15.90;99.90;;;;;;4991681;28;20445;-64
2022/06/13 09:15:02;;;;;;;6.93;2.72;;;16.10;99.90;;;;;;4981407;28;20046;-64
2022/06/13 09:17:52;;;;;;;9.85;2.58;;;16.60;99.90;;;;;;4976518;28;20049;-63
2022/06/13 09:20:49;;;;;;;7.63;2.67;;;16.90;99.90;;;;;;4991748;28;20538;-64
2022/06/13 09:23:31;;;;;;;6.40;2.05;;;16.90;99.90;;;;;;4989999;28;20473;-63
2022/06/13 09:26:19;;;;;;;6.60;1.90;;;17.10;99.90;;;;;;4980039;28;20035;-63
2022/06/13 09:29:06;;;;;;;4.78;2.25;;;17.20;99.90;;;;;;4976300;28;20038;-63
2022/06/13 09:35:21;;;;;;;4.03;1.85;;;17.50;99.90;;;;;;4971166;28;20522;-63
2022/06/13 09:37:57;;;;;;;5.13;1.88;;;17.50;99.90;;;;;;4980753;28;20487;-64
2022/06/13 09:40:49;;;;;;;3.88;1.52;;;17.50;99.90;;;;;;4984114;28;20129;-63
2022/06/13 09:43:33;;;;;;;8.32;1.80;;;17.50;99.90;;;;;;4987785;28;20046;-63
2022/06/13 09:46:12;;;;;;;6.18;1.80;;;17.20;99.90;;;;;;4972342;28;20414;-63
2022/06/13 09:48:46;;;;;;;5.18;1.98;;;16.90;99.90;;;;;;4971676;28;20361;-64
2022/06/13 09:51:35;;;;;;;4.25;1.80;;;16.70;99.90;;;;;;4988776;28;20129;-63
2022/06/13 09:54:24;;;;;;;4.63;1.70;;;16.60;99.90;;;;;;4980979;28;20050;-63
2022/06/13 09:57:40;;;;;;;5.80;1.88;;;16.70;99.90;;;;;;4990742;28;20406;-63
2022/06/13 10:00:35;;;;;;;6.53;1.90;;;17.20;99.90;;;;;;4909345;29;20044;-63
2022/06/13 10:03:10;;;;;;;5.70;1.67;;;17.30;99.90;;;;;;4903969;29;20668;-63
2022/06/13 10:05:47;;;;;;;5.25;1.65;;;17.00;99.90;;;;;;4965729;28;20057;-63
2022/06/13 10:08:42;;;;;;;4.88;1.45;;;16.70;99.90;;;;;;4983607;28;20038;-63
2022/06/13 10:11:30;;;;;;;4.07;1.80;;;16.50;99.90;;;;;;4978250;28;20059;-63
2022/06/13 10:14:11;;;;;;;4.38;1.40;;;16.50;99.90;;;;;;4984686;28;20051;-63
2022/06/13 10:17:03;;;;;;;4.50;1.45;;;16.70;99.90;;;;;;4985482;28;20042;-63
2022/06/13 10:19:45;;;;;;;5.38;1.83;;;16.90;99.90;;;;;;4988968;28;20108;-63
2022/06/13 10:22:26;;;;;;;7.65;1.90;;;17.20;99.90;;;;;;4993862;28;20045;-63
2022/06/13 10:25:20;;;;;;;8.70;2.42;;;17.50;99.90;;;;;;4993284;28;20046;-62
2022/06/13 10:27:55;;;;;;;5.13;2.03;;;17.70;99.90;;;;;;4990697;28;20065;-63
2022/06/13 10:30:42;;;;;;;5.57;1.77;;;18.00;99.90;;;;;;4992570;28;20046;-63
2022/06/13 10:33:10;;;;;;;4.43;1.67;;;18.00;99.90;;;;;;4981663;28;20046;-63
2022/06/13 10:35:50;;;;;;;8.07;2.13;;;17.60;99.90;;;;;;4994406;28;20037;-63
2022/06/13 10:38:27;;;;;;;2.50;1.38;;;17.70;99.90;;;;;;4985474;28;20031;-64
2022/06/13 10:40:53;;;;;;;4.63;1.60;;;17.70;97.90;;;;;;4993012;28;20034;-63
2022/06/13 10:43:20;;;;;;;4.97;1.80;;;17.80;99.90;;;;;;4987086;28;20517;-63
2022/06/13 10:45:46;;;;;;;5.40;1.80;;;18.00;99.90;;;;;;4988334;28;20457;-64
2022/06/13 10:48:17;;;;;;;4.47;1.38;;;18.00;99.10;;;;;;4993440;28;20117;-64
2022/06/13 10:50:53;;;;;;;3.85;1.30;;;18.10;99.20;;;;;;4986074;28;20038;-63
2022/06/13 10:53:39;;;;;;;5.97;1.60;;;18.20;99.20;;;;;;4990662;28;20042;-63
2022/06/13 10:56:14;;;;;;;6.88;1.50;;;18.30;95.90;;;;;;4972497;28;20046;-63
2022/06/13 10:58:48;;;;;;;6.93;1.73;;;18.30;94.90;;;;;;4986945;28;20042;-63
2022/06/13 11:01:19;;;;;;;7.30;1.92;;;17.80;98.10;;;;;;4990323;28;20034;-63
2022/06/13 11:04:15;;;;;;;7.05;1.73;;;17.50;99.80;;;;;;4986543;28;20038;-63
2022/06/13 11:06:53;;;;;;;6.18;2.38;;;17.70;99.90;;;;;;4988989;28;20053;-64
2022/06/13 11:09:35;;;;;;;7.30;1.98;;;17.70;99.80;;;;;;4989445;28;20061;-63
2022/06/13 11:12:24;;;;;;;6.45;1.63;;;17.80;98.20;;;;;;4988179;28;20522;-63
2022/06/13 11:23:27;;;;;;;;;;;18.00;97.80;;;;;;4994890;28;20050;-63
2022/06/13 11:25:57;;;;;;;6.30;1.85;;;18.10;96.30;;;;;;4983024;28;19918;-63
2022/06/13 11:28:27;;;;;;;8.57;2.00;;;18.30;97.30;;;;;;4990810;28;20598;-63
2022/06/13 11:31:12;;;;;;;5.82;2.05;;;18.50;98.10;;;;;;4993623;28;20417;-63
2022/06/13 11:33:40;;;;;;;8.38;2.25;;;18.60;98.90;;;;;;4988749;28;20065;-63
2022/06/13 11:36:22;;;;;;;7.45;2.53;;;18.60;99.60;;;;;;4992821;28;20042;-63
2022/06/13 11:38:54;;;;;;;5.32;1.88;;;18.30;99.10;;;;;;4973686;28;20066;-63
2022/06/13 11:46:44;;;;;;;6.28;2.45;;;18.10;99.90;;;;;;5591289;23;20528;-69
2022/06/13 11:54:47;;;;;;;7.15;2.20;;;16.90;99.90;;;;;;5714946;23;20062;-69
2022/06/13 11:57:20;;;;;;;7.57;2.30;;;16.80;99.90;;;;;;4983975;28;20043;-68
2022/06/13 12:00:15;;;;;;;12.00;2.40;;;16.80;99.90;;;;;;5001567;28;20418;-68
2022/06/13 12:02:43;;;;;;;11.95;2.63;;;17.10;99.90;;;;;;4942532;28;20058;-68
2022/06/13 12:05:34;;;;;;;7.05;2.30;;;17.70;99.90;;;;;;4946980;28;20169;-68
2022/06/13 12:34:31;;;;;;;8.77;2.22;;;18.70;98.50;;;;;;5567038;23;20054;-67
2022/06/13 12:37:18;;;;;;;6.72;1.92;;;19.20;99.20;;;;;;4989688;28;20042;-67
2022/06/13 12:40:08;;;;;;;9.18;2.28;;;19.50;97.10;;;;;;4975088;28;20502;-67
2022/06/13 12:42:52;;;;;;;9.60;2.20;;;19.50;98.00;;;;;;5672009;23;20510;-69
2022/06/13 12:45:44;;;;;;;8.93;2.25;;;19.20;98.00;;;;;;4995192;28;20049;-69
2022/06/13 12:48:29;;;;;;;5.00;1.95;;;18.80;97.70;;;;;;4997351;28;20041;-69
2022/06/13 12:51:07;;;;;;;8.68;2.00;;;18.70;97.10;;;;;;4977868;28;20046;-69
2022/06/13 12:54:02;;;;;;;5.72;2.15;;;19.00;97.60;;;;;;4974986;28;20046;-69
2022/06/13 13:04:52;;;;;;;9.43;2.10;;;19.40;97.20;;;;;;5660964;23;20047;-67
2022/06/13 13:44:40;;;;;;;6.72;1.90;;;18.60;96.30;;;;;;5019174;23;20053;-69
2022/06/13 13:47:18;;;;;;;6.95;2.03;;;18.50;96.40;;;;;;4958170;28;20046;-70
2022/06/13 13:50:04;;;;;;;9.48;2.92;;;18.40;97.10;;;;;;4938824;28;20031;-69
2022/06/13 13:52:38;;;;;;;7.97;2.08;;;18.20;97.10;;;;;;4946723;28;20506;-69
2022/06/13 13:55:23;;;;;;;7.13;2.20;;;18.10;97.90;;;;;;4907988;28;20075;-69
2022/06/13 14:13:45;;;;;;;5.53;2.15;;;20.50;95.30;;;;;;5887006;23;20054;-70
2022/06/13 14:16:15;;;;;;;5.93;1.85;;;20.90;93.60;;;;;;4976085;28;20128;-70
2022/06/13 14:19:17;;;;;;;6.95;2.05;;;20.90;92.70;;;;;;4991413;28;20375;-70
2022/06/13 14:21:43;;;;;;;8.05;2.00;;;20.60;92.50;;;;;;4975128;28;20585;-70
2022/06/13 14:24:13;;;;;;;5.30;1.67;;;20.60;94.30;;;;;;4978040;28;20054;-70
2022/06/13 14:26:42;;;;;;;8.93;1.90;;;21.20;93.70;;;;;;4974357;28;20125;-70
2022/06/13 14:29:10;;;;;;;8.20;2.08;;;21.00;87.70;;;;;;4972019;28;20058;-70
2022/06/13 14:32:06;;;;;;;7.20;1.95;;;20.40;92.30;;;;;;4984108;28;20053;-70
2022/06/13 15:00:30;;;;;;;9.23;2.13;;;19.70;94.00;;;;;;5765321;23;20073;-68
2022/06/13 15:02:56;;;;;;;6.15;2.10;;;19.40;94.50;;;;;;4969446;28;20061;-69
2022/06/13 15:05:31;;;;;;;7.28;2.00;;;20.20;94.70;;;;;;4953447;28;20089;-69
2022/06/13 15:08:08;;;;;;;6.80;2.33;;;20.20;92.80;;;;;;4976155;28;20078;-69
2022/06/13 15:10:50;;;;;;;5.90;2.10;;;19.90;93.20;;;;;;4989067;28;20051;-69
2022/06/13 15:18:31;;;;;;;7.22;2.17;;;18.70;95.30;;;;;;5228476;23;20054;-67
2022/06/13 15:20:57;;;;;;;9.20;2.15;;;18.50;96.50;;;;;;4991059;28;20049;-67
2022/06/13 15:23:39;;;;;;;7.28;2.10;;;18.30;96.90;;;;;;5004314;28;20033;-68
2022/06/13 15:26:05;;;;;;;8.32;2.10;;;18.30;97.00;;;;;;4998704;28;20045;-68
2022/06/13 15:29:14;;;;;;;7.93;2.03;;;18.40;97.20;;;;;;4981035;28;20767;-67
2022/06/13 15:31:43;;;;;;;4.78;2.03;;;18.60;97.90;;;;;;4989575;28;20200;-66
2022/06/13 15:34:12;;;;;;;8.82;2.00;;;18.80;96.10;;;;;;5015055;28;20045;-67
2022/06/13 15:36:39;;;;;;;6.18;2.17;;;19.50;95.70;;;;;;5012194;28;20046;-67
2022/06/13 15:39:15;;;;;;;6.07;1.83;;;20.10;94.30;;;;;;4979713;28;20494;-67
2022/06/13 15:41:47;;;;;;;5.78;1.85;;;20.10;92.60;;;;;;5002781;28;20034;-68
2022/06/13 15:44:17;;;;;;;7.75;2.45;;;19.70;93.80;;;;;;4996370;28;20048;-67
2022/06/13 15:46:49;;;;;;;5.20;1.92;;;19.20;94.80;;;;;;4963343;28;20034;-67
2022/06/13 15:49:19;;;;;;;6.18;1.83;;;18.90;95.20;;;;;;5008846;28;20042;-66
2022/06/13 15:52:08;;;;;;;6.15;1.73;;;18.80;95.80;;;;;;5010592;28;20057;-67
2022/06/13 15:55:02;;;;;;;5.00;2.00;;;19.00;95.90;;;;;;4982645;28;20045;-67
2022/06/13 15:57:29;;;;;;;8.80;1.73;;;19.50;95.70;;;;;;4987021;28;20054;-67
2022/06/13 15:59:59;;;;;;;5.60;1.80;;;19.70;95.00;;;;;;4973347;28;20395;-67
2022/06/13 16:02:38;;;;;;;5.30;1.83;;;19.60;94.60;;;;;;4957185;28;20070;-67
2022/06/13 16:05:13;;;;;;;7.05;2.10;;;19.50;94.10;;;;;;4989856;28;20120;-68
2022/06/13 16:07:39;;;;;;;8.48;2.13;;;19.90;93.90;;;;;;4990578;28;20562;-69
2022/06/13 16:10:07;;;;;;;5.90;1.75;;;21.00;93.90;;;;;;4996577;28;20046;-68
2022/06/13 16:12:37;;;;;;;8.98;1.98;;;21.80;91.30;;;;;;4977899;28;20047;-69
2022/06/13 16:15:07;;;;;;;4.73;1.77;;;22.00;86.60;;;;;;4981235;28;20486;-68
2022/06/13 16:17:39;;;;;;;9.48;2.28;;;22.40;85.60;;;;;;4995336;28;20291;-69
2022/06/13 16:20:23;;;;;;;7.10;1.90;;;22.70;79.60;;;;;;4976670;28;20046;-68
2022/06/13 16:22:54;;;;;;;6.63;2.22;;;23.30;74.80;;;;;;4972429;28;20146;-69
2022/06/13 16:25:21;;;;;;;9.63;2.30;;;23.60;75.10;;;;;;4962325;28;20499;-69
2022/06/13 16:27:48;;;;;;;5.85;2.13;;;23.80;73.20;;;;;;4989091;28;20046;-68
2022/06/13 16:30:15;;;;;;;8.40;2.20;;;23.40;72.00;;;;;;4971951;28;20433;-69
2022/06/13 16:32:47;;;;;;;5.82;1.98;;;22.80;73.70;;;;;;4975460;28;20053;-69